Main page
METAR-TAF:

METAR-TAF

Airports :

Dublin, Ireland

Casement Aerodrome

latitude: 53-18-06N, longitude: 6-27-04W, elevation: 97 m

Current weather observation

The report was made 48 minutes ago, at 08:00 UTC
Wind 9 kt from the West
Temperature 15°C
Humidity 82%
Pressure 1019 hPa
Visibility 10 km or more
Scattered clouds at a height of 1000 ft
Scattered clouds at a height of 2000 ft

METAR: EIME 230800Z 26009KT 9999 SCT010 SCT020 15/12 Q1019

Time: 09:48 (08:48 UTC)

Forecast

The report was made 48 minutes ago, at 08:00 UTC
Forecast valid from 23 at 09 UTC to 23 at 18 UTC
Wind 9 kt from the West
Visibility 10 km or more
Scattered clouds at a height of 900 ft
Broken clouds at a height of 3000 ft

TAF: EIME 230800Z 2309/2318 26009KT 9999 SCT009 BKN030

Weather observations and forecasts of more than 4000 airports (METAR and TAF reports).

The available stations are represented by yellow and red dots on the map.

Hover mouse over dot to see the name of the station.

Then click to see weather observations and forecasts.

To change the map : click on the green buttons with a black cross to zoom in, on the green button with a dash to zoom out, or on the green arrows for adjacent maps.


METAR-TAF: